createdAt,value
2023-04-09T00:04:46.862Z,100.00
2023-04-09T00:09:49.713Z,100.00
2023-04-09T00:14:53.646Z,100.00
2023-04-09T00:19:56.276Z,100.00
2023-04-09T00:24:59.610Z,100.00
2023-04-09T00:30:03.527Z,100.00
2023-04-09T00:35:06.951Z,100.00
2023-04-09T00:40:09.849Z,100.00
2023-04-09T00:45:13.855Z,100.00
2023-04-09T00:50:17.738Z,100.00
2023-04-09T00:55:22.294Z,100.00
2023-04-09T01:00:27.646Z,100.00
2023-04-09T01:05:44.882Z,100.00
2023-04-09T01:10:55.259Z,100.00
2023-04-09T01:16:02.987Z,100.00
2023-04-09T01:21:10.870Z,100.00
2023-04-09T01:26:23.698Z,100.00
2023-04-09T01:31:31.757Z,100.00
2023-04-09T01:36:36.747Z,100.00
2023-04-09T01:41:41.315Z,100.00
2023-04-09T01:46:47.691Z,100.00
2023-04-09T01:51:51.200Z,100.00
2023-04-09T01:56:53.622Z,100.00
2023-04-09T02:02:02.363Z,100.00
2023-04-09T02:07:11.100Z,100.00
2023-04-09T02:12:17.440Z,100.00
2023-04-09T02:17:21.565Z,100.00
2023-04-09T02:22:24.265Z,100.00
2023-04-09T02:27:26.843Z,100.00
2023-04-09T02:32:30.932Z,100.00
2023-04-09T02:37:33.537Z,100.00
2023-04-09T02:42:36.097Z,100.00
2023-04-09T02:47:40.203Z,100.00
2023-04-09T02:52:42.765Z,100.00
2023-04-09T02:57:45.636Z,100.00
2023-04-09T03:02:49.715Z,100.00
2023-04-09T03:07:52.397Z,100.00
2023-04-09T03:12:54.984Z,100.00
2023-04-09T03:17:59.056Z,100.00
2023-04-09T03:23:01.676Z,100.00
2023-04-09T03:28:04.504Z,100.00
2023-04-09T03:33:08.507Z,100.00
2023-04-09T03:38:11.281Z,100.00
2023-04-09T03:43:13.916Z,100.00
2023-04-09T03:48:17.913Z,100.00
2023-04-09T03:53:20.507Z,100.00
2023-04-09T03:58:23.058Z,100.00
2023-04-09T04:03:27.187Z,100.00
2023-04-09T04:08:30.106Z,100.00
2023-04-09T04:13:32.751Z,100.00
2023-04-09T04:18:36.725Z,100.00
2023-04-09T04:23:39.256Z,100.00
2023-04-09T04:28:42.077Z,100.00
2023-04-09T04:33:46.022Z,100.00
2023-04-09T04:38:48.647Z,100.00
2023-04-09T04:43:51.256Z,100.00
2023-04-09T04:48:55.245Z,100.00
2023-04-09T04:53:57.843Z,100.00
2023-04-09T04:59:01.554Z,100.00
2023-04-09T05:04:05.588Z,100.00
2023-04-09T05:09:08.201Z,100.00
2023-04-09T05:14:10.906Z,100.00
2023-04-09T05:19:14.820Z,100.00
2023-04-09T05:24:17.411Z,100.00
2023-04-09T05:29:21.139Z,100.00
2023-04-09T05:34:25.220Z,100.00
2023-04-09T05:39:27.773Z,100.00
2023-04-09T05:44:30.584Z,100.00
2023-04-09T05:49:34.655Z,100.00
2023-04-09T05:54:37.286Z,100.00
2023-04-09T05:59:39.938Z,100.00
2023-04-09T06:04:43.943Z,100.00
2023-04-09T06:09:46.876Z,100.00
2023-04-09T06:14:49.626Z,100.00
2023-04-09T06:19:54.775Z,100.00
2023-04-09T06:24:57.310Z,100.00
2023-04-09T06:29:59.856Z,100.00
2023-04-09T06:35:03.837Z,100.00
2023-04-09T06:40:08.075Z,100.00
2023-04-09T06:45:12.053Z,100.00
2023-04-09T06:50:16.236Z,100.00
2023-04-09T06:55:19.364Z,100.00
2023-04-09T07:00:23.030Z,100.00
2023-04-09T07:05:27.062Z,100.00
2023-04-09T07:10:30.156Z,96.57
2023-04-09T07:15:32.924Z,94.21
2023-04-09T07:20:36.895Z,83.56
2023-04-09T07:25:39.514Z,74.94
2023-04-09T07:30:42.202Z,79.15
2023-04-09T07:35:46.961Z,72.89
2023-04-09T07:40:49.650Z,72.15
2023-04-09T07:45:52.524Z,72.46
2023-04-09T07:50:56.752Z,64.77
2023-04-09T07:55:59.419Z,61.00
2023-04-09T08:01:02.050Z,63.92
2023-04-09T08:06:06.620Z,67.64
2023-04-09T08:11:09.260Z,72.40
2023-04-09T08:16:11.840Z,77.84
2023-04-09T08:21:15.853Z,69.93
2023-04-09T08:26:18.651Z,75.20
2023-04-09T08:31:21.561Z,82.72
2023-04-09T08:36:26.385Z,68.94
2023-04-09T08:41:30.542Z,69.71
2023-04-09T08:46:37.169Z,60.14
2023-04-09T08:51:46.432Z,53.95
2023-04-09T08:56:49.134Z,50.46
2023-04-09T09:02:07.940Z,47.63
2023-04-09T09:07:12.067Z,48.67
2023-04-09T09:12:32.298Z,47.04
2023-04-09T09:17:53.915Z,48.17
2023-04-09T09:22:57.958Z,47.80
2023-04-09T09:28:09.387Z,35.33
2023-04-09T09:33:13.099Z,57.56
2023-04-09T09:38:17.214Z,45.56
2023-04-09T09:43:20.038Z,45.85
2023-04-09T09:48:22.633Z,43.19
2023-04-09T09:53:27.415Z,44.33
2023-04-09T09:58:37.013Z,45.07
2023-04-09T10:03:41.061Z,43.49
2023-04-09T10:08:47.275Z,43.90
2023-04-09T10:13:54.199Z,42.89
2023-04-09T10:18:58.341Z,42.55
2023-04-09T10:24:05.843Z,41.93
2023-04-09T10:29:13.778Z,40.45
2023-04-09T10:34:17.654Z,38.22
2023-04-09T10:39:22.813Z,37.96
2023-04-09T10:44:27.410Z,39.23
2023-04-09T10:49:37.412Z,30.72
2023-04-09T10:54:49.284Z,39.38
2023-04-09T10:59:53.310Z,37.94
2023-04-09T11:05:07.240Z,39.37
2023-04-09T11:10:11.604Z,37.62
2023-04-09T11:15:17.280Z,37.95
2023-04-09T11:20:22.344Z,37.00
2023-04-09T11:25:28.504Z,36.89
2023-04-09T11:30:31.207Z,38.15
2023-04-09T11:35:35.232Z,36.66
2023-04-09T11:40:47.677Z,39.67
2023-04-09T11:45:50.616Z,39.38
2023-04-09T11:50:53.769Z,39.73
2023-04-09T11:55:57.949Z,42.14
2023-04-09T12:01:01.727Z,42.37
2023-04-09T12:06:07.730Z,40.51
2023-04-09T12:11:13.181Z,38.52
2023-04-09T12:16:20.539Z,41.58
2023-04-09T12:21:26.075Z,45.15
2023-04-09T12:26:30.028Z,42.91
2023-04-09T12:31:32.671Z,40.33
2023-04-09T12:36:35.333Z,40.68
2023-04-09T12:41:39.314Z,42.89
2023-04-09T12:46:42.208Z,42.29
2023-04-09T12:51:44.613Z,41.32
2023-04-09T12:56:50.063Z,41.39
2023-04-09T13:01:52.707Z,42.04
2023-04-09T13:06:55.506Z,44.38
2023-04-09T13:11:59.465Z,42.07
2023-04-09T13:17:02.231Z,41.01
2023-04-09T13:22:07.807Z,44.06
2023-04-09T13:27:11.889Z,45.03
2023-04-09T13:32:14.536Z,42.68
2023-04-09T13:37:17.327Z,41.42
2023-04-09T13:42:21.232Z,42.63
2023-04-09T13:47:24.231Z,45.64
2023-04-09T13:52:29.677Z,47.39
2023-04-09T13:57:33.867Z,50.99
2023-04-09T14:02:36.562Z,43.39
2023-04-09T14:07:39.197Z,41.27
2023-04-09T14:12:44.139Z,40.36
2023-04-09T14:17:46.746Z,40.75
2023-04-09T14:22:49.521Z,40.34
2023-04-09T14:27:53.329Z,38.79
2023-04-09T14:32:55.951Z,40.79
2023-04-09T14:37:58.609Z,44.87
2023-04-09T14:43:02.570Z,44.38
2023-04-09T14:48:05.859Z,44.87
2023-04-09T14:53:08.424Z,46.18
2023-04-09T14:58:12.326Z,46.56
2023-04-09T15:03:15.087Z,44.31
2023-04-09T15:08:17.691Z,44.62
2023-04-09T15:13:22.695Z,44.73
2023-04-09T15:18:25.295Z,41.57
2023-04-09T15:23:27.958Z,40.47
2023-04-09T15:28:31.928Z,41.07
2023-04-09T15:33:34.546Z,39.77
2023-04-09T15:38:37.160Z,38.92
2023-04-09T15:43:41.135Z,41.13
2023-04-09T15:48:43.887Z,43.26
2023-04-09T15:53:46.432Z,43.64
2023-04-09T15:58:50.530Z,43.50
2023-04-09T16:03:53.164Z,43.67
2023-04-09T16:08:56.528Z,45.71
2023-04-09T16:14:00.596Z,47.42
2023-04-09T16:19:03.123Z,45.43
2023-04-09T16:24:05.897Z,44.67
2023-04-09T16:29:09.797Z,43.68
2023-04-09T16:34:13.363Z,44.05
2023-04-09T16:39:16.254Z,43.18
2023-04-09T16:44:20.131Z,45.38
2023-04-09T16:49:22.760Z,44.26
2023-04-09T16:54:25.375Z,49.43
2023-04-09T16:59:29.287Z,49.15
2023-04-09T17:04:34.448Z,50.35
2023-04-09T17:09:37.185Z,53.20
2023-04-09T17:14:41.959Z,56.35
2023-04-09T17:19:44.568Z,56.94
2023-04-09T17:24:47.315Z,57.35
2023-04-09T17:29:51.775Z,59.92
2023-04-09T17:34:54.482Z,65.47
2023-04-09T17:39:57.099Z,69.73
2023-04-09T17:45:01.103Z,70.75
2023-04-09T17:50:04.338Z,73.17
2023-04-09T17:55:07.625Z,76.34
2023-04-09T18:00:12.851Z,80.69
2023-04-09T18:05:15.645Z,83.69
2023-04-09T18:10:18.438Z,88.69
2023-04-09T18:15:23.495Z,93.71
2023-04-09T18:20:26.271Z,96.35
2023-04-09T18:25:28.819Z,97.71
2023-04-09T18:30:32.713Z,100.00
2023-04-09T18:35:35.553Z,100.00
2023-04-09T18:40:41.782Z,100.00
2023-04-09T18:45:45.694Z,100.00
2023-04-09T18:50:48.302Z,100.00
2023-04-09T18:55:50.870Z,100.00
2023-04-09T19:00:55.357Z,100.00
2023-04-09T19:05:59.670Z,100.00
2023-04-09T19:11:02.269Z,100.00
2023-04-09T19:16:09.046Z,100.00
2023-04-09T19:21:11.748Z,100.00
2023-04-09T19:26:14.421Z,100.00
2023-04-09T19:31:18.660Z,100.00
2023-04-09T19:36:22.587Z,100.00
2023-04-09T19:41:25.262Z,100.00
2023-04-09T19:46:29.364Z,100.00
2023-04-09T19:51:32.617Z,100.00
2023-04-09T19:56:35.176Z,100.00
2023-04-09T20:01:39.133Z,100.00
2023-04-09T20:06:43.709Z,100.00
2023-04-09T20:11:46.614Z,100.00
2023-04-09T20:16:50.603Z,100.00
2023-04-09T20:21:54.811Z,100.00
2023-04-09T20:26:59.342Z,100.00
2023-04-09T20:32:03.452Z,100.00
2023-04-09T20:37:06.667Z,100.00
2023-04-09T20:42:09.243Z,100.00
2023-04-09T20:47:13.488Z,100.00
2023-04-09T20:52:16.665Z,100.00
2023-04-09T20:57:19.200Z,100.00
2023-04-09T21:02:23.665Z,100.00
2023-04-09T21:07:26.400Z,100.00
2023-04-09T21:12:30.025Z,100.00
2023-04-09T21:17:33.803Z,100.00
2023-04-09T21:22:36.419Z,100.00
2023-04-09T21:27:38.970Z,100.00
2023-04-09T21:32:43.060Z,100.00
2023-04-09T21:37:45.970Z,100.00
2023-04-09T21:42:48.525Z,100.00
2023-04-09T21:47:52.558Z,100.00
2023-04-09T21:52:55.296Z,100.00
2023-04-09T21:57:57.955Z,100.00
2023-04-09T22:03:02.209Z,100.00
2023-04-09T22:08:04.954Z,100.00
2023-04-09T22:13:07.992Z,100.00
2023-04-09T22:18:11.934Z,100.00
2023-04-09T22:23:14.511Z,100.00
2023-04-09T22:28:17.127Z,100.00
2023-04-09T22:33:21.136Z,100.00
2023-04-09T22:38:23.742Z,100.00
2023-04-09T22:43:26.424Z,100.00
2023-04-09T22:48:30.867Z,100.00
2023-04-09T22:53:33.469Z,100.00
2023-04-09T22:58:36.356Z,100.00
2023-04-09T23:03:40.321Z,100.00
2023-04-09T23:08:42.912Z,100.00
2023-04-09T23:13:45.740Z,100.00
2023-04-09T23:18:49.692Z,100.00
2023-04-09T23:23:52.620Z,100.00
2023-04-09T23:28:55.697Z,100.00
2023-04-09T23:33:59.737Z,100.00
2023-04-09T23:39:02.507Z,100.00
2023-04-09T23:44:05.370Z,100.00
2023-04-09T23:49:09.276Z,100.00
2023-04-09T23:54:11.847Z,100.00
2023-04-09T23:59:14.417Z,100.00
